Time;durP1;ratioP1;P1;durP2;ratioP2;P2;SDS_P1;SDS_P2;PMS_P1;PMS_P2;Temp;Humidity;BMP_temperature;BMP_pressure;BME280_temperature;BME280_humidity;BME280_pressure;Samples;Min_cycle;Max_cycle;Signal;HPM_P1;HPM_P2
2021/12/29 00:01:23;;;;;;;159.45;62.40;;;2.00;99.90;;;;;;5015502;28;20033;-70
2021/12/29 00:03:49;;;;;;;161.38;59.17;;;2.00;99.90;;;;;;5013486;28;20026;-70
2021/12/29 00:06:15;;;;;;;196.60;65.97;;;2.00;99.90;;;;;;5015135;28;20041;-70
2021/12/29 00:08:41;;;;;;;164.80;61.80;;;2.10;99.90;;;;;;5015058;28;20038;-70
2021/12/29 00:11:07;;;;;;;173.32;61.88;;;2.00;99.90;;;;;;5014689;28;20453;-70
2021/12/29 00:13:33;;;;;;;162.50;60.67;;;2.10;99.90;;;;;;5015370;28;20033;-70
2021/12/29 00:16:00;;;;;;;161.13;62.45;;;2.10;99.90;;;;;;5015046;28;20104;-70
2021/12/29 00:18:28;;;;;;;180.25;63.67;;;2.10;99.90;;;;;;5014344;28;20121;-70
2021/12/29 00:20:54;;;;;;;166.65;59.78;;;2.10;99.90;;;;;;5014371;28;20543;-70
2021/12/29 00:23:20;;;;;;;150.75;57.53;;;2.10;99.90;;;;;;5014494;28;20033;-70
2021/12/29 00:25:46;;;;;;;155.38;58.88;;;2.10;99.90;;;;;;5014884;28;20492;-70
2021/12/29 00:28:11;;;;;;;137.10;55.40;;;2.10;99.90;;;;;;5014115;28;20493;-70
2021/12/29 00:30:37;;;;;;;142.05;56.47;;;2.20;99.90;;;;;;4993128;28;20121;-70
2021/12/29 00:33:02;;;;;;;146.73;55.03;;;2.10;99.90;;;;;;4977729;28;20026;-70
2021/12/29 00:35:29;;;;;;;138.10;55.75;;;2.10;99.90;;;;;;5007436;28;20508;-70
2021/12/29 00:37:55;;;;;;;141.80;55.67;;;2.20;99.90;;;;;;5013604;28;20028;-70
2021/12/29 00:40:21;;;;;;;148.25;56.25;;;2.10;99.90;;;;;;4993900;28;20034;-69
2021/12/29 00:42:46;;;;;;;139.35;57.13;;;2.10;99.90;;;;;;5014299;28;20030;-70
2021/12/29 00:45:12;;;;;;;141.07;54.75;;;2.10;99.90;;;;;;5014513;28;20033;-70
2021/12/29 00:47:38;;;;;;;146.00;57.55;;;2.10;99.90;;;;;;5014975;28;20025;-70
2021/12/29 00:50:07;;;;;;;146.82;56.85;;;2.10;99.90;;;;;;5014043;28;20033;-68
2021/12/29 00:52:33;;;;;;;150.77;58.55;;;2.10;99.90;;;;;;5013784;28;20030;-70
2021/12/29 00:55:00;;;;;;;158.25;59.50;;;2.10;99.90;;;;;;5014380;28;20537;-70
2021/12/29 00:57:26;;;;;;;142.18;55.35;;;2.20;99.90;;;;;;5014744;28;20022;-70
2021/12/29 00:59:51;;;;;;;154.02;57.20;;;2.20;99.90;;;;;;5013786;28;20473;-70
2021/12/29 01:02:17;;;;;;;163.50;60.60;;;2.10;99.90;;;;;;5014822;28;20445;-70
2021/12/29 01:04:43;;;;;;;153.68;56.95;;;2.10;99.90;;;;;;5014414;28;20030;-70
2021/12/29 01:07:09;;;;;;;140.55;55.72;;;2.10;99.90;;;;;;5013655;28;20083;-70
2021/12/29 01:09:35;;;;;;;147.25;57.65;;;2.10;99.90;;;;;;5013280;28;20089;-70
2021/12/29 01:12:00;;;;;;;151.63;56.80;;;2.10;99.90;;;;;;5013519;28;20037;-70
2021/12/29 01:14:30;;;;;;;169.27;61.72;;;2.10;99.90;;;;;;5014300;28;20034;-70
2021/12/29 01:16:56;;;;;;;151.02;58.42;;;2.00;99.90;;;;;;5012513;28;20049;-70
2021/12/29 01:19:26;;;;;;;155.50;60.25;;;2.00;99.90;;;;;;5013898;28;20513;-70
2021/12/29 01:21:56;;;;;;;153.73;57.85;;;2.00;99.90;;;;;;5013591;28;20105;-70
2021/12/29 01:24:25;;;;;;;147.27;56.88;;;2.00;99.90;;;;;;5013641;28;20750;-70
2021/12/29 01:26:50;;;;;;;148.43;57.97;;;2.00;99.90;;;;;;5014057;28;20030;-70
2021/12/29 01:29:16;;;;;;;167.25;62.10;;;2.00;99.90;;;;;;5012794;28;20040;-70
2021/12/29 01:31:42;;;;;;;153.38;58.58;;;2.00;99.90;;;;;;5013764;28;20040;-70
2021/12/29 01:34:08;;;;;;;176.25;61.38;;;2.00;99.90;;;;;;5013399;28;20025;-70
2021/12/29 01:36:36;;;;;;;161.45;62.10;;;1.90;99.90;;;;;;5013609;28;20033;-70
2021/12/29 01:39:05;;;;;;;165.15;61.22;;;2.00;99.90;;;;;;5013111;28;20030;-70
2021/12/29 01:41:31;;;;;;;184.18;65.82;;;1.90;99.90;;;;;;5013134;28;20057;-70
2021/12/29 01:43:57;;;;;;;164.18;60.92;;;2.00;99.90;;;;;;5013490;28;20022;-70
2021/12/29 01:46:22;;;;;;;156.68;62.45;;;1.90;99.90;;;;;;5013484;28;20052;-70
2021/12/29 01:48:48;;;;;;;150.40;61.25;;;1.90;99.90;;;;;;4991388;28;20026;-70
2021/12/29 01:51:17;;;;;;;154.13;62.10;;;1.90;99.90;;;;;;4993164;28;20058;-70
2021/12/29 01:53:48;;;;;;;170.82;61.67;;;1.90;99.90;;;;;;5008852;28;20104;-70
2021/12/29 01:56:14;;;;;;;159.63;59.38;;;1.90;99.90;;;;;;5013494;28;20026;-70
2021/12/29 01:58:41;;;;;;;162.68;61.97;;;1.90;99.90;;;;;;5013494;28;20469;-70
2021/12/29 02:01:06;;;;;;;168.27;62.40;;;2.00;99.90;;;;;;5013325;28;20105;-70
2021/12/29 02:03:32;;;;;;;169.65;60.72;;;2.00;99.90;;;;;;5012830;28;20496;-70
2021/12/29 02:05:58;;;;;;;182.40;64.63;;;1.90;99.90;;;;;;5012317;28;20022;-70
2021/12/29 02:08:24;;;;;;;189.10;66.55;;;1.90;99.90;;;;;;5012602;28;20033;-70
2021/12/29 02:10:52;;;;;;;172.88;60.45;;;1.90;99.90;;;;;;5013331;28;20084;-70
2021/12/29 02:13:18;;;;;;;171.05;62.45;;;2.00;99.90;;;;;;5012840;28;20046;-70
2021/12/29 02:15:44;;;;;;;178.75;64.20;;;1.90;99.90;;;;;;5013243;28;20061;-70
2021/12/29 02:18:15;;;;;;;198.20;67.63;;;1.90;99.90;;;;;;5012119;28;20029;-69
2021/12/29 02:20:44;;;;;;;228.32;72.35;;;2.00;99.90;;;;;;5013471;28;20026;-70
2021/12/29 02:23:16;;;;;;;230.55;74.03;;;2.00;99.90;;;;;;5013135;28;20113;-70
2021/12/29 02:25:52;;;;;;;223.15;71.50;;;2.00;99.90;;;;;;5013705;28;20022;-70
2021/12/29 02:28:23;;;;;;;199.70;66.38;;;2.00;99.90;;;;;;5012613;28;20061;-70
2021/12/29 02:30:49;;;;;;;211.90;67.40;;;1.90;99.90;;;;;;5012854;28;20026;-70
2021/12/29 02:33:16;;;;;;;236.98;71.88;;;1.90;99.90;;;;;;5012649;28;20092;-70
2021/12/29 02:35:42;;;;;;;187.27;64.10;;;1.90;99.90;;;;;;5013328;28;20030;-70
2021/12/29 02:38:30;;;;;;;203.93;68.65;;;1.90;99.90;;;;;;5012378;28;20022;-69
2021/12/29 02:40:59;;;;;;;202.77;67.65;;;1.90;99.90;;;;;;5013224;28;20022;-70
2021/12/29 02:43:26;;;;;;;195.95;67.43;;;1.90;99.90;;;;;;5013004;28;20048;-70
2021/12/29 02:45:58;;;;;;;195.23;64.70;;;1.90;99.90;;;;;;5012682;28;20059;-70
2021/12/29 02:48:26;;;;;;;201.15;66.53;;;1.90;99.90;;;;;;5012809;28;20493;-70
2021/12/29 02:50:55;;;;;;;190.25;62.97;;;1.90;99.90;;;;;;5012439;28;20026;-70
2021/12/29 02:53:22;;;;;;;185.77;63.35;;;1.90;99.90;;;;;;5024070;28;20032;-70
2021/12/29 02:55:47;;;;;;;183.48;61.42;;;1.80;99.90;;;;;;5031675;28;20045;-68
2021/12/29 02:58:13;;;;;;;156.90;62.10;;;1.90;99.90;;;;;;5032050;28;20060;-70
2021/12/29 03:00:38;;;;;;;168.68;58.35;;;1.90;99.90;;;;;;5032920;28;20025;-70
2021/12/29 03:03:14;;;;;;;152.75;57.25;;;1.90;99.90;;;;;;5032592;28;20087;-70
2021/12/29 03:05:40;;;;;;;171.80;58.42;;;1.90;99.90;;;;;;5018526;28;20021;-70
2021/12/29 03:08:05;;;;;;;158.13;57.97;;;1.90;99.90;;;;;;5025820;28;20485;-70
2021/12/29 03:10:31;;;;;;;168.57;59.10;;;1.80;99.90;;;;;;5016565;28;20034;-70
2021/12/29 03:12:57;;;;;;;164.65;59.53;;;1.80;99.90;;;;;;5017807;28;20026;-70
2021/12/29 03:15:23;;;;;;;186.70;65.13;;;1.80;99.90;;;;;;5027175;28;20107;-71
2021/12/29 03:17:48;;;;;;;172.82;60.28;;;1.80;99.90;;;;;;5036132;28;20036;-70
2021/12/29 03:20:14;;;;;;;186.10;65.50;;;1.80;99.90;;;;;;5032201;28;20079;-70
2021/12/29 03:22:39;;;;;;;168.27;62.05;;;1.80;99.90;;;;;;5031298;28;20061;-70
2021/12/29 03:25:06;;;;;;;189.65;66.30;;;1.90;99.90;;;;;;5016309;28;20430;-70
2021/12/29 03:27:31;;;;;;;185.65;66.25;;;1.90;99.90;;;;;;5016691;28;20905;-70
2021/12/29 03:29:57;;;;;;;157.13;61.63;;;1.90;99.90;;;;;;5034087;28;20026;-70
2021/12/29 03:32:37;;;;;;;186.05;64.47;;;1.90;99.90;;;;;;5019879;28;20052;-70
2021/12/29 03:35:02;;;;;;;171.40;61.83;;;1.90;99.90;;;;;;5020655;28;20034;-70
2021/12/29 03:37:28;;;;;;;174.48;65.03;;;1.80;99.90;;;;;;5032692;28;20439;-70
2021/12/29 03:39:54;;;;;;;169.65;61.53;;;1.80;99.90;;;;;;5035486;28;20438;-70
2021/12/29 03:42:19;;;;;;;167.57;62.45;;;1.80;99.90;;;;;;5034941;28;20496;-70
2021/12/29 03:44:45;;;;;;;198.38;65.95;;;1.80;99.90;;;;;;5035724;28;20025;-70
2021/12/29 03:47:10;;;;;;;206.10;71.75;;;1.80;99.90;;;;;;5031686;28;20079;-70
2021/12/29 03:49:36;;;;;;;207.60;67.88;;;1.80;99.90;;;;;;5035354;28;20111;-70
2021/12/29 03:52:02;;;;;;;184.98;69.97;;;1.80;99.90;;;;;;5029221;28;20044;-70
2021/12/29 03:54:28;;;;;;;203.57;70.32;;;1.80;99.90;;;;;;5015526;28;20457;-70
2021/12/29 03:56:53;;;;;;;230.98;73.10;;;1.80;99.90;;;;;;5015344;28;20069;-70
2021/12/29 03:59:19;;;;;;;233.10;73.43;;;1.80;99.90;;;;;;5015610;28;20026;-70
2021/12/29 04:01:46;;;;;;;221.85;73.43;;;1.80;99.90;;;;;;5027583;28;20385;-70
2021/12/29 04:04:11;;;;;;;242.57;73.38;;;1.80;99.90;;;;;;5035617;28;20017;-70
2021/12/29 04:06:37;;;;;;;252.07;78.75;;;1.80;99.90;;;;;;5034855;28;20022;-70
2021/12/29 04:09:04;;;;;;;261.92;77.57;;;1.80;99.90;;;;;;5034620;28;20036;-70
2021/12/29 04:11:30;;;;;;;267.90;80.00;;;1.80;99.90;;;;;;5034604;28;20416;-70
2021/12/29 04:13:56;;;;;;;295.45;83.00;;;1.80;99.90;;;;;;5033830;28;20160;-70
2021/12/29 04:16:21;;;;;;;265.88;80.80;;;1.80;99.90;;;;;;5031253;28;20108;-70
2021/12/29 04:21:38;;;;;;;299.38;84.85;;;1.80;99.90;;;;;;5031569;28;20055;-70
2021/12/29 04:24:05;;;;;;;299.27;87.80;;;1.80;99.90;;;;;;5034919;28;20091;-70
2021/12/29 04:26:33;;;;;;;303.58;86.38;;;1.80;99.90;;;;;;5015533;28;20028;-70
2021/12/29 04:28:58;;;;;;;307.02;89.00;;;1.80;99.90;;;;;;5015134;28;20108;-70
2021/12/29 04:31:24;;;;;;;303.35;87.80;;;1.80;99.90;;;;;;5015023;28;20184;-70
2021/12/29 04:33:50;;;;;;;297.50;86.38;;;1.80;99.90;;;;;;5014740;28;20049;-70
2021/12/29 04:36:16;;;;;;;362.00;109.38;;;1.80;99.90;;;;;;5020356;28;20029;-70
2021/12/29 04:38:41;;;;;;;320.13;93.55;;;1.70;99.90;;;;;;5034536;28;20028;-70
2021/12/29 04:41:07;;;;;;;306.08;86.75;;;1.70;99.90;;;;;;5030208;28;20096;-70
2021/12/29 04:43:33;;;;;;;328.45;90.05;;;1.70;99.90;;;;;;5034340;28;20544;-70
2021/12/29 04:45:59;;;;;;;376.55;124.43;;;1.70;99.90;;;;;;5030828;28;20029;-70
2021/12/29 04:48:25;;;;;;;320.40;92.38;;;1.70;99.90;;;;;;5033804;28;20026;-69
2021/12/29 04:51:05;;;;;;;310.42;94.25;;;1.70;99.90;;;;;;5032660;28;20029;-70
2021/12/29 04:53:32;;;;;;;386.50;121.72;;;1.70;99.90;;;;;;4995162;28;20041;-70
2021/12/29 04:55:58;;;;;;;367.23;118.68;;;1.70;99.90;;;;;;4995051;28;20027;-70
2021/12/29 04:58:23;;;;;;;394.55;114.07;;;1.70;99.90;;;;;;5025320;28;20030;-70
2021/12/29 05:00:51;;;;;;;313.55;92.05;;;1.70;99.90;;;;;;5030322;28;20033;-70
2021/12/29 05:03:16;;;;;;;309.73;87.93;;;1.70;99.90;;;;;;5033928;28;20112;-70
2021/12/29 05:08:24;;;;;;;335.23;91.90;;;1.70;99.90;;;;;;5032535;28;20489;-68
2021/12/29 05:08:40;;;;;;;299.30;86.55;;;1.70;99.90;;;;;;4993122;28;20549;-70
2021/12/29 05:11:08;;;;;;;262.75;79.78;;;1.70;99.90;;;;;;4995101;28;20034;-70
2021/12/29 05:13:38;;;;;;;267.65;77.50;;;1.60;99.90;;;;;;5030220;28;20018;-71
2021/12/29 05:16:04;;;;;;;259.55;77.15;;;1.60;99.90;;;;;;5030091;28;20030;-70
2021/12/29 05:18:33;;;;;;;238.52;76.82;;;1.60;99.90;;;;;;5033397;28;20445;-70
2021/12/29 05:21:00;;;;;;;230.10;75.68;;;1.60;99.90;;;;;;5033660;28;20017;-70
2021/12/29 05:23:26;;;;;;;274.27;79.97;;;1.70;99.90;;;;;;4994099;28;20018;-70
2021/12/29 05:25:54;;;;;;;276.35;79.00;;;1.70;99.90;;;;;;4994397;28;20023;-70
2021/12/29 05:28:23;;;;;;;268.77;79.80;;;1.70;99.90;;;;;;5022008;28;20025;-70
2021/12/29 05:30:49;;;;;;;279.75;79.03;;;1.70;99.90;;;;;;5029885;28;20470;-70
2021/12/29 05:33:15;;;;;;;270.95;79.53;;;1.70;99.90;;;;;;5033757;28;20092;-70
2021/12/29 05:35:41;;;;;;;242.85;75.13;;;1.70;99.90;;;;;;5017628;28;20033;-70
2021/12/29 05:38:06;;;;;;;237.98;75.70;;;1.70;99.90;;;;;;5013893;28;20493;-70
2021/12/29 05:40:32;;;;;;;245.40;77.38;;;1.70;99.90;;;;;;5025122;28;20485;-70
2021/12/29 05:42:58;;;;;;;294.92;83.07;;;1.70;99.90;;;;;;5014204;28;20068;-70
2021/12/29 05:45:26;;;;;;;308.92;82.32;;;1.70;99.90;;;;;;5014401;28;20049;-70
2021/12/29 05:47:52;;;;;;;318.05;86.05;;;1.60;99.90;;;;;;5032195;28;20032;-70
2021/12/29 05:50:21;;;;;;;309.73;88.00;;;1.60;99.90;;;;;;5032761;28;20080;-70
2021/12/29 05:52:47;;;;;;;250.32;78.95;;;1.60;99.90;;;;;;5029550;28;20507;-70
2021/12/29 05:55:14;;;;;;;253.30;77.20;;;1.60;99.90;;;;;;5033754;28;20041;-70
2021/12/29 05:57:40;;;;;;;247.02;74.95;;;1.60;99.90;;;;;;5029471;28;20048;-70
2021/12/29 06:00:09;;;;;;;454.95;90.03;;;1.60;99.90;;;;;;5033080;28;20033;-71
2021/12/29 06:02:35;;;;;;;405.45;87.38;;;1.60;99.90;;;;;;5014821;28;20088;-70
2021/12/29 06:05:00;;;;;;;396.52;86.88;;;1.60;99.90;;;;;;5012855;28;20026;-70
2021/12/29 06:07:26;;;;;;;256.58;81.38;;;1.60;99.90;;;;;;5017390;28;20097;-70
2021/12/29 06:09:52;;;;;;;256.23;84.13;;;1.50;99.90;;;;;;5013324;28;20092;-70
2021/12/29 06:12:18;;;;;;;328.13;81.30;;;1.60;99.90;;;;;;5019411;28;20029;-70
2021/12/29 06:14:44;;;;;;;227.05;80.22;;;1.60;99.90;;;;;;5032984;28;20022;-70
2021/12/29 06:17:11;;;;;;;218.23;73.05;;;1.60;99.90;;;;;;5011992;28;20030;-70
2021/12/29 06:19:37;;;;;;;215.55;75.45;;;1.60;99.90;;;;;;4993079;28;20029;-70
2021/12/29 06:22:04;;;;;;;207.23;73.82;;;1.50;99.90;;;;;;4993645;28;20019;-70
2021/12/29 06:24:29;;;;;;;221.60;75.90;;;1.50;99.90;;;;;;5015880;28;20029;-70
2021/12/29 06:26:55;;;;;;;220.65;74.05;;;1.60;99.90;;;;;;5024918;28;20026;-70
2021/12/29 06:29:21;;;;;;;267.75;77.18;;;1.60;99.90;;;;;;5033141;28;20037;-70
2021/12/29 06:31:47;;;;;;;218.85;73.10;;;1.60;99.90;;;;;;5029203;28;20029;-70
2021/12/29 06:34:13;;;;;;;239.18;74.43;;;1.60;99.90;;;;;;5015746;28;20464;-70
2021/12/29 06:36:40;;;;;;;189.52;69.30;;;1.60;99.90;;;;;;5015225;28;20030;-70
2021/12/29 06:39:06;;;;;;;225.32;76.88;;;1.60;99.90;;;;;;5028099;28;20025;-70
2021/12/29 06:41:31;;;;;;;377.92;82.55;;;1.60;99.90;;;;;;5034442;28;20032;-70
2021/12/29 06:43:57;;;;;;;261.25;83.95;;;1.60;99.90;;;;;;5036096;28;20092;-70
2021/12/29 06:46:22;;;;;;;266.67;81.93;;;1.60;99.90;;;;;;5033168;28;20030;-70
2021/12/29 06:48:48;;;;;;;258.50;92.30;;;1.60;99.90;;;;;;5036542;28;20026;-70
2021/12/29 06:51:14;;;;;;;351.98;86.63;;;1.60;99.90;;;;;;5035919;28;20032;-70
2021/12/29 06:53:39;;;;;;;224.50;75.75;;;1.60;99.90;;;;;;5017137;28;20032;-70
2021/12/29 06:56:06;;;;;;;202.32;71.78;;;1.60;99.90;;;;;;5016808;28;20112;-70
2021/12/29 06:58:32;;;;;;;221.68;73.68;;;1.60;99.90;;;;;;5017582;28;20033;-70
2021/12/29 07:00:58;;;;;;;213.95;72.72;;;1.60;99.90;;;;;;5018098;28;20560;-69
2021/12/29 07:03:25;;;;;;;214.27;72.40;;;1.60;99.90;;;;;;5017265;28;20105;-70
2021/12/29 07:05:54;;;;;;;219.10;71.93;;;1.70;99.90;;;;;;5017680;28;20477;-69
2021/12/29 07:08:23;;;;;;;218.43;71.43;;;1.70;99.90;;;;;;5036035;28;20034;-70
2021/12/29 07:10:49;;;;;;;199.23;72.95;;;1.60;99.90;;;;;;5032171;28;20038;-70
2021/12/29 07:13:14;;;;;;;218.77;74.05;;;1.70;99.90;;;;;;5036100;28;20453;-69
2021/12/29 07:15:40;;;;;;;277.33;76.10;;;1.70;99.90;;;;;;5032370;28;20515;-69
2021/12/29 07:18:05;;;;;;;281.38;82.82;;;1.70;99.90;;;;;;5036085;28;20064;-70
2021/12/29 07:20:31;;;;;;;306.15;83.55;;;1.70;99.90;;;;;;5035607;28;20473;-69
2021/12/29 07:22:57;;;;;;;452.85;89.28;;;1.70;99.90;;;;;;5032287;28;20444;-70
2021/12/29 07:25:24;;;;;;;344.52;83.80;;;1.60;99.90;;;;;;5035637;28;20067;-70
2021/12/29 07:27:53;;;;;;;204.27;70.43;;;1.60;99.90;;;;;;5023043;28;20033;-70
2021/12/29 07:30:19;;;;;;;370.35;84.95;;;1.60;99.90;;;;;;5016396;28;20026;-69
2021/12/29 07:32:45;;;;;;;375.65;90.93;;;1.60;99.90;;;;;;5019289;28;20408;-70
2021/12/29 07:35:10;;;;;;;249.93;85.25;;;1.50;99.90;;;;;;5016651;28;20037;-69
2021/12/29 07:37:36;;;;;;;251.75;78.65;;;1.60;99.90;;;;;;5020253;28;20066;-69
2021/12/29 07:40:06;;;;;;;236.85;75.18;;;1.50;99.90;;;;;;5034984;28;20141;-70
2021/12/29 07:42:37;;;;;;;254.80;76.35;;;1.60;99.90;;;;;;5021294;28;20385;-70
2021/12/29 07:45:07;;;;;;;240.90;71.95;;;1.60;99.90;;;;;;5034917;28;20560;-70
2021/12/29 07:47:39;;;;;;;311.05;82.70;;;1.60;99.90;;;;;;5016714;28;20091;-69
2021/12/29 07:50:06;;;;;;;294.00;83.85;;;1.60;99.90;;;;;;4998055;28;20120;-70
2021/12/29 07:52:31;;;;;;;296.08;85.07;;;1.60;99.90;;;;;;5024823;28;20394;-69
2021/12/29 07:54:57;;;;;;;241.38;79.32;;;1.60;99.90;;;;;;5015508;28;20080;-69
2021/12/29 07:57:23;;;;;;;254.23;81.00;;;1.60;99.90;;;;;;5022442;28;20105;-69
2021/12/29 07:59:48;;;;;;;244.52;76.32;;;1.60;99.90;;;;;;5035417;28;20049;-70
2021/12/29 08:02:17;;;;;;;357.85;92.72;;;1.70;99.90;;;;;;5018767;28;20034;-69
2021/12/29 08:04:43;;;;;;;267.30;77.47;;;1.60;99.90;;;;;;5015345;28;20121;-70
2021/12/29 08:07:09;;;;;;;354.73;82.25;;;1.70;99.90;;;;;;5018863;28;20038;-69
2021/12/29 08:09:35;;;;;;;237.50;77.40;;;1.70;99.90;;;;;;5015286;28;20036;-70
2021/12/29 08:12:01;;;;;;;251.13;77.88;;;1.70;99.90;;;;;;5021461;28;20043;-69
2021/12/29 08:14:26;;;;;;;256.38;77.22;;;1.60;99.90;;;;;;5035251;28;20113;-69
2021/12/29 08:16:52;;;;;;;225.15;71.53;;;1.70;99.90;;;;;;5033422;28;20467;-69
2021/12/29 08:19:17;;;;;;;221.02;71.97;;;1.60;99.90;;;;;;5034636;28;20037;-70
2021/12/29 08:21:43;;;;;;;205.07;70.88;;;1.70;99.90;;;;;;5033991;28;20028;-69
2021/12/29 08:24:09;;;;;;;219.57;73.07;;;1.70;99.90;;;;;;5032789;28;20025;-70
2021/12/29 08:26:35;;;;;;;220.93;73.25;;;1.70;99.90;;;;;;5034927;28;20040;-69
2021/12/29 08:29:01;;;;;;;238.40;73.97;;;1.70;99.90;;;;;;5020780;28;20512;-70
2021/12/29 08:31:27;;;;;;;229.65;74.70;;;1.70;99.90;;;;;;4983354;28;20031;-69
2021/12/29 08:33:54;;;;;;;221.65;71.43;;;1.70;99.90;;;;;;4993446;28;20030;-69
2021/12/29 08:36:20;;;;;;;212.05;69.82;;;1.80;99.90;;;;;;5004931;28;20033;-69
2021/12/29 08:38:46;;;;;;;234.93;70.13;;;1.80;99.90;;;;;;5014814;28;20022;-70
2021/12/29 08:41:11;;;;;;;220.95;73.40;;;1.80;99.90;;;;;;5016844;28;20764;-69
2021/12/29 08:43:37;;;;;;;215.65;69.50;;;1.80;99.90;;;;;;5034342;28;20032;-69
2021/12/29 08:46:03;;;;;;;208.95;70.20;;;1.90;99.90;;;;;;5034363;28;20033;-70
2021/12/29 08:48:28;;;;;;;220.85;71.93;;;1.90;99.90;;;;;;5015987;28;20030;-69
2021/12/29 08:50:58;;;;;;;218.30;70.05;;;2.00;99.90;;;;;;5014344;28;20041;-69
2021/12/29 08:53:24;;;;;;;182.65;63.90;;;2.00;99.90;;;;;;5018949;28;20104;-69
2021/12/29 08:55:51;;;;;;;202.18;66.95;;;2.00;99.90;;;;;;5013876;28;20072;-69
2021/12/29 08:58:18;;;;;;;185.75;65.95;;;2.00;99.90;;;;;;5013847;28;20026;-70
2021/12/29 09:00:44;;;;;;;207.35;71.70;;;2.00;99.90;;;;;;5014248;28;20084;-69
2021/12/29 09:03:10;;;;;;;195.38;68.07;;;2.00;99.90;;;;;;5026778;28;20036;-70
2021/12/29 09:05:36;;;;;;;206.43;67.88;;;2.00;99.90;;;;;;5033969;28;20021;-70
2021/12/29 09:08:02;;;;;;;196.77;69.28;;;2.00;99.90;;;;;;5025850;28;20034;-69
2021/12/29 09:10:28;;;;;;;200.70;67.78;;;2.00;99.90;;;;;;5014245;28;20057;-70
2021/12/29 09:12:54;;;;;;;214.48;70.90;;;2.10;99.90;;;;;;4997209;28;20498;-69
2021/12/29 09:15:20;;;;;;;207.30;68.10;;;2.10;99.90;;;;;;4994079;28;20034;-69
2021/12/29 09:17:46;;;;;;;200.50;65.82;;;2.20;99.90;;;;;;5015778;28;20061;-69
2021/12/29 09:20:23;;;;;;;203.07;68.65;;;2.20;99.90;;;;;;5033653;28;20087;-70
2021/12/29 09:22:50;;;;;;;203.13;68.68;;;2.20;99.90;;;;;;5026891;28;20033;-69
2021/12/29 09:25:15;;;;;;;279.55;80.05;;;2.20;99.90;;;;;;5013801;28;20565;-70
2021/12/29 09:27:42;;;;;;;197.43;71.30;;;2.20;99.90;;;;;;5017014;28;20060;-69
2021/12/29 09:30:08;;;;;;;206.35;69.57;;;2.20;99.90;;;;;;4993275;28;20026;-69
2021/12/29 09:32:33;;;;;;;216.70;74.20;;;2.20;99.90;;;;;;4996152;28;20022;-69
2021/12/29 09:35:00;;;;;;;225.63;72.30;;;2.20;99.90;;;;;;5014099;28;20036;-70
2021/12/29 09:37:27;;;;;;;220.57;73.85;;;2.20;99.90;;;;;;4996066;28;20032;-70
2021/12/29 09:39:53;;;;;;;276.27;72.47;;;2.30;99.90;;;;;;5014132;28;20401;-69
2021/12/29 09:42:19;;;;;;;212.18;71.68;;;2.20;99.90;;;;;;5028790;28;20026;-69
2021/12/29 09:44:45;;;;;;;225.32;74.10;;;2.20;99.90;;;;;;5014008;28;20072;-70
2021/12/29 09:47:11;;;;;;;239.43;72.95;;;2.20;99.90;;;;;;5028470;28;20029;-70
2021/12/29 09:49:37;;;;;;;218.45;71.95;;;2.20;99.90;;;;;;5033287;28;20029;-70
2021/12/29 09:52:04;;;;;;;239.90;73.88;;;2.20;99.90;;;;;;5033793;28;20025;-70
2021/12/29 09:54:30;;;;;;;607.47;88.93;;;2.20;99.90;;;;;;5032485;28;20026;-69
2021/12/29 09:56:56;;;;;;;253.98;74.63;;;2.20;99.90;;;;;;5033023;28;20029;-70
2021/12/29 09:59:22;;;;;;;242.98;73.32;;;2.20;99.90;;;;;;5033421;28;20112;-70
2021/12/29 10:01:48;;;;;;;397.75;82.72;;;2.40;99.90;;;;;;5033117;28;20481;-69
2021/12/29 10:04:14;;;;;;;304.73;78.72;;;2.40;99.90;;;;;;5028929;28;20101;-69
2021/12/29 10:06:40;;;;;;;486.73;83.68;;;2.40;99.90;;;;;;5028410;28;20070;-69
2021/12/29 10:09:12;;;;;;;346.38;77.90;;;2.50;99.90;;;;;;5033226;28;20034;-70
2021/12/29 10:11:38;;;;;;;283.60;76.72;;;2.50;99.90;;;;;;5023742;28;20025;-69
2021/12/29 10:14:09;;;;;;;314.05;81.78;;;2.50;99.90;;;;;;5016946;28;20105;-69
2021/12/29 10:16:36;;;;;;;258.15;72.57;;;2.50;99.90;;;;;;5020137;28;20382;-69
2021/12/29 10:19:12;;;;;;;329.88;76.05;;;2.50;99.90;;;;;;5037085;28;20609;-69
2021/12/29 10:21:46;;;;;;;348.52;73.30;;;2.50;99.90;;;;;;5037065;28;20022;-70
2021/12/29 10:24:13;;;;;;;285.50;70.43;;;2.60;99.90;;;;;;5036673;28;20024;-70
2021/12/29 10:26:47;;;;;;;213.55;64.28;;;2.60;99.90;;;;;;5036928;28;20049;-70
2021/12/29 10:29:20;;;;;;;251.07;67.90;;;2.60;99.90;;;;;;5036902;28;20080;-69
2021/12/29 10:31:52;;;;;;;324.67;68.88;;;2.60;99.90;;;;;;5037207;28;20057;-70
2021/12/29 10:34:21;;;;;;;244.50;66.57;;;2.60;99.90;;;;;;5033518;28;20029;-70
2021/12/29 10:37:17;;;;;;;251.85;67.22;;;2.60;99.90;;;;;;5036169;28;20503;-70
2021/12/29 10:39:45;;;;;;;245.82;70.07;;;2.60;99.90;;;;;;4995214;28;20046;-70
2021/12/29 10:42:17;;;;;;;250.50;72.28;;;2.60;99.90;;;;;;4997288;28;20026;-69
2021/12/29 10:44:59;;;;;;;257.75;70.80;;;2.60;99.90;;;;;;4997171;28;20534;-70
2021/12/29 10:47:25;;;;;;;257.80;73.32;;;2.60;99.90;;;;;;5025568;28;20025;-70
2021/12/29 10:50:07;;;;;;;473.90;85.43;;;2.60;99.90;;;;;;5036001;28;20025;-70
2021/12/29 10:52:35;;;;;;;334.48;79.32;;;2.60;99.90;;;;;;5005843;28;20038;-69
2021/12/29 10:55:04;;;;;;;258.35;76.72;;;2.70;99.90;;;;;;4996891;28;20034;-69
2021/12/29 10:57:30;;;;;;;395.05;78.93;;;2.70;99.90;;;;;;5006634;28;20040;-69
2021/12/29 10:59:57;;;;;;;260.58;76.18;;;2.70;99.90;;;;;;5036533;28;20104;-69
2021/12/29 11:02:29;;;;;;;267.98;76.03;;;2.70;99.90;;;;;;5036179;28;20029;-69
2021/12/29 11:05:00;;;;;;;236.30;73.82;;;2.80;99.90;;;;;;5026504;28;20065;-70
2021/12/29 11:07:28;;;;;;;226.63;67.28;;;2.80;99.90;;;;;;5016217;28;20041;-70
2021/12/29 11:09:54;;;;;;;224.68;65.30;;;2.80;99.90;;;;;;5016349;28;20481;-70
2021/12/29 11:12:20;;;;;;;230.80;70.95;;;2.90;99.90;;;;;;5015863;28;20025;-69
2021/12/29 11:14:52;;;;;;;237.25;69.55;;;2.90;99.90;;;;;;5033783;28;20035;-70
2021/12/29 11:17:24;;;;;;;258.75;71.78;;;2.90;99.90;;;;;;5036383;28;20516;-70
2021/12/29 11:19:56;;;;;;;203.05;66.82;;;2.90;99.90;;;;;;5022031;28;20121;-71
2021/12/29 11:22:25;;;;;;;243.93;72.23;;;2.90;99.90;;;;;;5016664;28;20084;-69
2021/12/29 11:25:00;;;;;;;231.95;68.78;;;3.00;99.90;;;;;;5015750;28;20029;-69
2021/12/29 11:27:28;;;;;;;257.00;73.07;;;3.00;99.90;;;;;;5018245;28;20018;-69
2021/12/29 11:30:00;;;;;;;305.80;77.25;;;2.90;99.90;;;;;;5017880;28;20064;-69
2021/12/29 11:32:45;;;;;;;221.00;66.60;;;2.90;99.90;;;;;;5015914;28;20034;-69
2021/12/29 11:35:22;;;;;;;252.25;69.47;;;2.90;99.90;;;;;;5016506;28;20428;-70
2021/12/29 11:37:54;;;;;;;211.07;64.63;;;3.00;99.90;;;;;;5025281;28;20025;-69
2021/12/29 11:40:26;;;;;;;218.95;65.82;;;3.10;99.90;;;;;;5035143;28;20163;-69
2021/12/29 11:42:52;;;;;;;228.20;64.97;;;3.20;99.90;;;;;;5018589;28;20095;-69
2021/12/29 11:45:19;;;;;;;196.38;60.17;;;3.20;99.90;;;;;;5016500;28;20026;-69
2021/12/29 11:47:45;;;;;;;243.45;69.25;;;3.20;99.90;;;;;;5015365;28;20128;-69
2021/12/29 11:50:18;;;;;;;211.38;59.95;;;3.20;99.90;;;;;;5017254;28;20575;-69
2021/12/29 11:53:09;;;;;;;213.63;65.32;;;3.30;99.90;;;;;;5022152;28;20040;-69
2021/12/29 11:56:06;;;;;;;202.40;62.22;;;3.30;99.90;;;;;;5035664;28;20417;-70
2021/12/29 11:58:33;;;;;;;242.25;62.92;;;3.20;99.90;;;;;;5020652;28;20168;-69
2021/12/29 12:01:23;;;;;;;191.40;59.95;;;3.20;99.90;;;;;;5015608;28;20168;-69
2021/12/29 12:03:59;;;;;;;218.07;61.63;;;3.30;99.90;;;;;;5015469;28;20022;-69
2021/12/29 12:06:30;;;;;;;194.07;58.47;;;3.20;99.90;;;;;;5015176;28;20029;-68
2021/12/29 12:09:07;;;;;;;199.52;56.15;;;3.20;99.90;;;;;;5102168;23;20075;-73
2021/12/29 12:11:33;;;;;;;224.60;61.20;;;3.20;99.90;;;;;;5034029;28;20013;-74
2021/12/29 12:13:59;;;;;;;289.85;66.13;;;3.10;99.90;;;;;;5034961;28;20020;-74
2021/12/29 12:16:27;;;;;;;287.75;67.25;;;3.00;99.90;;;;;;5035204;28;20025;-73
2021/12/29 12:18:55;;;;;;;243.07;65.90;;;3.00;99.90;;;;;;5029217;28;20022;-73
2021/12/29 12:21:33;;;;;;;203.13;61.58;;;2.90;99.90;;;;;;5015109;28;20041;-73
2021/12/29 12:24:14;;;;;;;222.88;65.00;;;2.90;99.90;;;;;;5016740;28;20021;-73
2021/12/29 12:26:56;;;;;;;249.57;61.20;;;2.90;99.90;;;;;;5015065;28;20101;-73
2021/12/29 12:29:29;;;;;;;221.50;60.90;;;2.80;99.90;;;;;;5017681;28;20436;-73
2021/12/29 12:32:19;;;;;;;207.23;60.88;;;2.70;99.90;;;;;;5033447;28;20485;-74